createdAt,value
2022-11-30T00:01:49.952Z,7.65
2022-11-30T00:04:18.683Z,7.57
2022-11-30T00:06:49.741Z,7.55
2022-11-30T00:09:20.628Z,7.57
2022-11-30T00:11:51.762Z,7.64
2022-11-30T00:14:20.539Z,7.58
2022-11-30T00:16:50.513Z,7.61
2022-11-30T00:19:18.954Z,7.63
2022-11-30T00:21:49.296Z,7.52
2022-11-30T00:24:17.703Z,7.55
2022-11-30T00:26:46.788Z,7.45
2022-11-30T00:29:15.593Z,7.43
2022-11-30T00:31:44.061Z,7.60
2022-11-30T00:34:12.818Z,7.61
2022-11-30T00:36:41.260Z,7.60
2022-11-30T00:39:11.282Z,7.72
2022-11-30T00:41:39.466Z,7.67
2022-11-30T00:44:10.043Z,7.62
2022-11-30T00:46:39.067Z,7.69
2022-11-30T00:49:08.713Z,7.70
2022-11-30T00:51:39.195Z,7.65
2022-11-30T00:54:07.449Z,7.62
2022-11-30T00:56:39.773Z,7.65
2022-11-30T00:59:08.444Z,7.65
2022-11-30T01:01:37.102Z,7.63
2022-11-30T01:04:07.346Z,7.58
2022-11-30T01:06:36.097Z,7.59
2022-11-30T01:09:05.198Z,7.55
2022-11-30T01:11:34.038Z,7.51
2022-11-30T01:14:04.406Z,7.59
2022-11-30T01:16:36.052Z,7.58
2022-11-30T01:19:07.125Z,7.55
2022-11-30T01:21:35.578Z,7.56
2022-11-30T01:24:04.118Z,7.58
2022-11-30T01:26:32.905Z,7.56
2022-11-30T01:29:01.806Z,7.59
2022-11-30T01:31:31.382Z,7.59
2022-11-30T01:34:01.701Z,7.56
2022-11-30T01:36:30.561Z,7.58
2022-11-30T01:38:59.399Z,7.60
2022-11-30T01:41:28.965Z,7.56
2022-11-30T01:43:59.141Z,7.56
2022-11-30T01:46:33.007Z,7.51
2022-11-30T01:49:13.590Z,7.44
2022-11-30T01:51:48.008Z,7.39
2022-11-30T01:54:21.229Z,7.49
2022-11-30T01:56:55.319Z,7.42
2022-11-30T01:59:25.355Z,7.49
2022-11-30T02:01:57.231Z,7.58
2022-11-30T02:04:30.700Z,7.41
2022-11-30T02:07:00.799Z,7.43
2022-11-30T02:09:36.043Z,7.44
2022-11-30T02:12:08.739Z,7.48
2022-11-30T02:14:44.108Z,7.46
2022-11-30T02:17:22.260Z,7.49
2022-11-30T02:20:31.159Z,7.44
2022-11-30T02:23:19.558Z,7.45
2022-11-30T02:25:59.433Z,7.43
2022-11-30T02:28:59.839Z,7.39
2022-11-30T02:31:31.654Z,7.38
2022-11-30T02:34:01.417Z,7.36
2022-11-30T02:36:31.329Z,7.36
2022-11-30T02:39:01.973Z,7.38
2022-11-30T02:41:38.397Z,7.41
2022-11-30T02:44:11.978Z,7.44
2022-11-30T02:47:02.607Z,7.33
2022-11-30T02:49:39.073Z,7.46
2022-11-30T02:52:09.575Z,7.41
2022-11-30T02:54:39.620Z,7.33
2022-11-30T02:57:10.393Z,7.34
2022-11-30T02:59:41.294Z,7.37
2022-11-30T03:02:11.971Z,7.38
2022-11-30T03:04:40.747Z,7.44
2022-11-30T03:07:09.628Z,7.40
2022-11-30T03:09:40.958Z,7.38
2022-11-30T03:12:09.337Z,7.46
2022-11-30T03:14:37.843Z,7.39
2022-11-30T03:17:08.307Z,7.43
2022-11-30T03:19:36.867Z,7.43
2022-11-30T03:22:06.171Z,7.41
2022-11-30T03:24:36.591Z,7.39
2022-11-30T03:27:05.391Z,7.43
2022-11-30T03:29:34.203Z,7.45
2022-11-30T03:32:03.026Z,7.43
2022-11-30T03:34:33.440Z,7.42
2022-11-30T03:37:01.959Z,7.49
2022-11-30T03:39:30.571Z,7.55
2022-11-30T03:41:58.740Z,7.46
2022-11-30T03:44:27.223Z,7.49
2022-11-30T03:46:55.344Z,7.46
2022-11-30T03:49:23.695Z,7.37
2022-11-30T03:51:53.815Z,7.44
2022-11-30T03:54:22.920Z,7.42
2022-11-30T03:56:51.287Z,7.45
2022-11-30T03:59:20.414Z,7.50
2022-11-30T04:01:48.937Z,7.48
2022-11-30T04:04:17.531Z,7.44
2022-11-30T04:06:46.105Z,7.39
2022-11-30T04:09:16.251Z,7.44
2022-11-30T04:11:44.683Z,7.42
2022-11-30T04:14:13.901Z,7.43
2022-11-30T04:16:42.676Z,7.46
2022-11-30T04:19:11.136Z,7.43
2022-11-30T04:21:40.155Z,7.54
2022-11-30T04:24:09.641Z,7.53
2022-11-30T04:26:45.459Z,7.51
2022-11-30T04:29:14.169Z,7.64
2022-11-30T04:31:42.577Z,7.50
2022-11-30T04:34:12.742Z,7.52
2022-11-30T04:36:41.569Z,7.50
2022-11-30T04:39:10.542Z,7.49
2022-11-30T04:41:41.668Z,7.46
2022-11-30T04:44:10.382Z,7.51
2022-11-30T04:46:38.970Z,7.49
2022-11-30T04:49:08.417Z,7.46
2022-11-30T04:51:38.766Z,7.47
2022-11-30T04:54:07.224Z,7.49
2022-11-30T04:56:36.039Z,7.39
2022-11-30T04:59:06.312Z,7.41
2022-11-30T05:01:34.869Z,7.42
2022-11-30T05:04:04.686Z,7.41
2022-11-30T05:06:34.327Z,7.45
2022-11-30T05:09:02.778Z,7.47
2022-11-30T05:11:30.916Z,7.43
2022-11-30T05:13:59.573Z,7.46
2022-11-30T05:16:30.299Z,7.45
2022-11-30T05:18:58.521Z,7.45
2022-11-30T05:21:26.965Z,7.49
2022-11-30T05:23:55.465Z,7.45
2022-11-30T05:26:24.123Z,7.41
2022-11-30T05:28:52.283Z,7.43
2022-11-30T05:31:20.999Z,7.42
2022-11-30T05:33:53.377Z,7.50
2022-11-30T05:36:22.602Z,7.48
2022-11-30T05:38:54.344Z,7.37
2022-11-30T05:41:22.698Z,7.32
2022-11-30T05:43:50.876Z,7.38
2022-11-30T05:46:19.356Z,7.37
2022-11-30T05:48:53.570Z,7.39
2022-11-30T05:51:24.494Z,7.42
2022-11-30T05:53:53.238Z,7.46
2022-11-30T05:56:26.042Z,7.50
2022-11-30T05:58:54.155Z,7.49
2022-11-30T06:01:24.566Z,7.53
2022-11-30T06:03:54.804Z,7.57
2022-11-30T06:06:24.127Z,7.54
2022-11-30T06:08:52.575Z,7.45
2022-11-30T06:11:20.910Z,7.46
2022-11-30T06:13:49.729Z,7.52
2022-11-30T06:16:19.718Z,7.43
2022-11-30T06:18:48.255Z,7.45
2022-11-30T06:21:23.924Z,7.51
2022-11-30T06:23:53.517Z,7.49
2022-11-30T06:26:22.230Z,7.46
2022-11-30T06:28:50.798Z,7.42
2022-11-30T06:31:18.974Z,7.50
2022-11-30T06:33:47.165Z,7.51
2022-11-30T06:36:15.603Z,7.46
2022-11-30T06:38:45.737Z,7.53
2022-11-30T06:41:15.299Z,7.52
2022-11-30T06:43:43.702Z,7.53
2022-11-30T06:46:12.278Z,7.54
2022-11-30T06:48:42.370Z,7.45
2022-11-30T06:51:12.748Z,7.52
2022-11-30T06:53:42.907Z,7.51
2022-11-30T06:56:13.698Z,7.54
2022-11-30T06:58:43.397Z,7.56
2022-11-30T07:01:13.986Z,7.53
2022-11-30T07:03:42.413Z,7.52
2022-11-30T07:06:12.696Z,7.53
2022-11-30T07:08:42.781Z,7.52
2022-11-30T07:11:13.752Z,7.50
2022-11-30T07:13:44.147Z,7.51
2022-11-30T07:16:13.603Z,7.53
2022-11-30T07:18:43.396Z,7.55
2022-11-30T07:21:12.288Z,7.54
2022-11-30T07:23:57.994Z,7.63
2022-11-30T07:26:28.676Z,7.72
2022-11-30T07:28:59.031Z,7.71
2022-11-30T07:31:29.971Z,7.62
2022-11-30T07:33:59.591Z,7.65
2022-11-30T07:36:30.455Z,7.65
2022-11-30T07:38:59.245Z,7.65
2022-11-30T07:41:30.033Z,7.70
2022-11-30T07:44:00.014Z,7.70
2022-11-30T07:46:28.248Z,7.76
2022-11-30T07:48:56.724Z,7.65
2022-11-30T07:51:25.326Z,7.70
2022-11-30T07:53:54.034Z,7.84
2022-11-30T07:56:22.599Z,7.82
2022-11-30T07:58:58.688Z,7.89
2022-11-30T08:01:29.596Z,7.95
2022-11-30T08:04:00.908Z,7.97
2022-11-30T08:06:31.072Z,7.93
2022-11-30T08:09:04.501Z,7.89
2022-11-30T08:11:35.434Z,7.93
2022-11-30T08:14:05.973Z,8.02
2022-11-30T08:16:37.900Z,8.12
2022-11-30T08:19:06.733Z,8.08
2022-11-30T08:21:35.334Z,8.08
2022-11-30T08:24:03.613Z,8.02
2022-11-30T08:26:33.837Z,8.16
2022-11-30T08:29:06.291Z,8.20
2022-11-30T08:31:37.228Z,8.27
2022-11-30T08:34:08.558Z,8.26
2022-11-30T08:36:38.308Z,8.36
2022-11-30T08:39:08.171Z,8.15
2022-11-30T08:41:39.339Z,8.34
2022-11-30T08:44:09.973Z,8.41
2022-11-30T08:46:55.270Z,8.40
2022-11-30T08:49:25.373Z,8.45
2022-11-30T08:54:47.414Z,8.46
2022-11-30T08:57:16.387Z,8.56
2022-11-30T08:59:50.115Z,8.60
2022-11-30T09:02:21.210Z,8.68
2022-11-30T09:04:51.936Z,8.64
2022-11-30T09:07:20.550Z,8.66
2022-11-30T09:09:49.284Z,8.67
2022-11-30T09:12:17.882Z,8.71
2022-11-30T09:14:57.744Z,8.80
2022-11-30T09:17:27.070Z,8.86
2022-11-30T09:19:57.646Z,8.90
2022-11-30T09:22:27.483Z,8.77
2022-11-30T09:24:56.626Z,8.91
2022-11-30T09:27:30.457Z,8.97
2022-11-30T09:30:00.576Z,8.80
2022-11-30T09:32:30.235Z,8.91
2022-11-30T09:34:58.650Z,8.94
2022-11-30T09:37:29.064Z,8.95
2022-11-30T09:39:57.563Z,8.74
2022-11-30T09:42:41.261Z,8.83
2022-11-30T09:45:19.966Z,8.89
2022-11-30T09:48:13.940Z,8.95
2022-11-30T09:50:45.468Z,9.06
2022-11-30T09:53:29.200Z,9.03
2022-11-30T09:56:00.708Z,8.98
2022-11-30T09:58:41.152Z,9.08
2022-11-30T10:01:19.797Z,9.03
2022-11-30T10:03:50.311Z,9.03
2022-11-30T10:06:28.712Z,9.27
2022-11-30T10:09:22.120Z,9.23
2022-11-30T10:11:59.688Z,9.32
2022-11-30T10:15:04.859Z,9.23
2022-11-30T10:17:45.293Z,9.16
2022-11-30T10:20:27.339Z,9.17
2022-11-30T10:23:09.287Z,9.04
2022-11-30T10:25:49.224Z,9.06
2022-11-30T10:31:13.207Z,8.98
2022-11-30T10:33:47.528Z,8.89
2022-11-30T10:36:31.123Z,8.83
2022-11-30T10:39:05.880Z,8.76
2022-11-30T10:41:43.569Z,8.70
2022-11-30T10:44:18.009Z,8.80
2022-11-30T10:46:54.632Z,8.95
2022-11-30T10:49:25.920Z,9.00
2022-11-30T10:51:56.747Z,9.02
2022-11-30T10:54:26.139Z,9.01
2022-11-30T10:56:55.382Z,9.00
2022-11-30T10:59:28.507Z,9.09
2022-11-30T11:01:59.562Z,9.04
2022-11-30T11:04:32.635Z,9.01
2022-11-30T11:07:11.282Z,8.93
2022-11-30T11:09:42.417Z,9.01
2022-11-30T11:12:19.928Z,9.05
2022-11-30T11:14:50.167Z,8.95
2022-11-30T11:17:26.421Z,8.97
2022-11-30T11:19:56.779Z,9.04
2022-11-30T11:22:28.646Z,8.92
2022-11-30T11:25:22.930Z,8.90
2022-11-30T11:27:55.988Z,8.82
2022-11-30T11:30:32.159Z,8.91
2022-11-30T11:33:01.856Z,8.96
2022-11-30T11:35:42.413Z,8.96
2022-11-30T11:38:21.168Z,8.86
2022-11-30T11:41:06.639Z,8.93
2022-11-30T11:43:42.288Z,8.92
2022-11-30T11:46:14.385Z,8.87
2022-11-30T11:48:48.042Z,8.84
2022-11-30T11:51:33.622Z,8.87
2022-11-30T11:54:16.275Z,8.86
2022-11-30T11:56:47.453Z,8.86
2022-11-30T11:59:24.121Z,8.93
2022-11-30T12:02:01.297Z,9.13
2022-11-30T12:04:47.909Z,8.97
2022-11-30T12:07:25.738Z,9.06
2022-11-30T12:10:16.545Z,9.11
2022-11-30T12:12:55.056Z,9.14
2022-11-30T12:15:34.303Z,9.16
2022-11-30T12:18:16.000Z,9.11
2022-11-30T12:20:56.118Z,9.10
2022-11-30T12:23:48.213Z,9.15
2022-11-30T12:26:28.456Z,9.08
2022-11-30T12:29:14.828Z,9.01
2022-11-30T12:31:59.137Z,9.10
2022-11-30T12:34:43.605Z,8.98
2022-11-30T12:37:21.992Z,8.99
2022-11-30T12:40:03.733Z,8.87
2022-11-30T12:42:41.447Z,8.88
2022-11-30T12:45:17.506Z,8.83
2022-11-30T12:47:56.676Z,9.07
2022-11-30T12:50:39.995Z,9.17
2022-11-30T12:53:20.603Z,9.11
2022-11-30T12:56:02.865Z,9.12
2022-11-30T12:58:39.204Z,9.13
2022-11-30T13:01:18.589Z,9.22
2022-11-30T13:04:07.877Z,9.10
2022-11-30T13:06:40.850Z,9.04
2022-11-30T13:09:22.599Z,9.12
2022-11-30T13:11:58.027Z,9.21
2022-11-30T13:14:29.375Z,9.13
2022-11-30T13:17:03.213Z,9.12
2022-11-30T13:19:48.945Z,9.18
2022-11-30T13:22:25.344Z,9.02
2022-11-30T13:25:02.161Z,9.00
2022-11-30T13:27:41.921Z,8.95
2022-11-30T13:30:29.882Z,9.03
2022-11-30T13:32:59.322Z,9.10
2022-11-30T13:35:44.123Z,9.14
2022-11-30T13:38:36.494Z,8.93
2022-11-30T13:41:08.783Z,9.02
2022-11-30T13:43:45.437Z,8.92
2022-11-30T13:46:20.819Z,8.95
2022-11-30T13:48:50.644Z,9.01
2022-11-30T13:51:35.872Z,9.00
2022-11-30T13:54:36.875Z,9.00
2022-11-30T13:57:05.602Z,8.88
2022-11-30T13:59:41.069Z,8.93
2022-11-30T14:03:01.263Z,9.08
2022-11-30T14:05:41.707Z,9.11
2022-11-30T14:08:42.657Z,9.14
2022-11-30T14:11:40.821Z,8.98
2022-11-30T14:14:46.645Z,8.90
2022-11-30T14:17:28.750Z,8.87
2022-11-30T14:20:01.481Z,8.88
2022-11-30T14:22:32.834Z,8.77
2022-11-30T14:25:10.730Z,8.77
2022-11-30T14:27:41.831Z,8.82
2022-11-30T14:30:20.545Z,8.69
2022-11-30T14:32:58.619Z,8.71
2022-11-30T14:35:32.147Z,8.86
2022-11-30T14:38:03.780Z,8.86
2022-11-30T14:40:34.024Z,8.76
2022-11-30T14:43:05.262Z,8.83
2022-11-30T14:45:36.787Z,8.72
2022-11-30T14:48:17.902Z,8.78
2022-11-30T14:50:50.049Z,8.84
2022-11-30T14:53:34.236Z,8.86
2022-11-30T14:56:10.111Z,8.73
2022-11-30T14:58:44.192Z,8.81
2022-11-30T15:01:21.451Z,8.67
2022-11-30T15:03:50.896Z,8.63
2022-11-30T15:06:21.132Z,8.59
2022-11-30T15:08:53.665Z,8.60
2022-11-30T15:11:24.161Z,8.63
2022-11-30T15:13:56.619Z,8.55
2022-11-30T15:16:30.754Z,8.54
2022-11-30T15:19:00.541Z,8.56
2022-11-30T15:21:30.929Z,8.45
2022-11-30T15:24:01.751Z,8.38
2022-11-30T15:26:36.869Z,8.35
2022-11-30T15:29:11.803Z,8.32
2022-11-30T15:31:45.254Z,8.31
2022-11-30T15:34:20.918Z,8.26
2022-11-30T15:36:52.863Z,8.23
2022-11-30T15:39:25.560Z,8.43
2022-11-30T15:41:58.963Z,8.28
2022-11-30T15:44:28.627Z,8.27
2022-11-30T15:47:01.561Z,8.29
2022-11-30T15:49:32.159Z,8.30
2022-11-30T15:52:04.924Z,8.27
2022-11-30T15:54:47.446Z,8.21
2022-11-30T15:57:18.392Z,8.16
2022-11-30T16:00:06.265Z,8.19
2022-11-30T16:02:39.083Z,8.15
2022-11-30T16:05:31.945Z,8.25
2022-11-30T16:08:01.771Z,8.17
2022-11-30T16:10:40.140Z,8.23
2022-11-30T16:13:09.075Z,8.28
2022-11-30T16:15:39.732Z,8.25
2022-11-30T16:18:19.168Z,8.30
2022-11-30T16:20:52.182Z,8.39
2022-11-30T16:23:21.995Z,8.35
2022-11-30T16:25:52.534Z,8.24
2022-11-30T16:28:22.369Z,8.17
2022-11-30T16:30:52.364Z,8.29
2022-11-30T16:33:24.801Z,8.18
2022-11-30T16:35:56.966Z,8.17
2022-11-30T16:38:26.049Z,8.12
2022-11-30T16:40:55.872Z,8.03
2022-11-30T16:43:26.432Z,7.98
2022-11-30T16:45:55.332Z,7.96
2022-11-30T16:48:29.130Z,8.13
2022-11-30T16:50:58.450Z,8.12
2022-11-30T16:53:28.963Z,8.06
2022-11-30T16:55:57.113Z,8.07
2022-11-30T16:58:25.295Z,8.15
2022-11-30T17:00:54.249Z,8.16
2022-11-30T17:03:28.395Z,8.14
2022-11-30T17:05:59.724Z,8.07
2022-11-30T17:08:28.212Z,8.11
2022-11-30T17:10:56.532Z,8.19
2022-11-30T17:13:25.696Z,8.13
2022-11-30T17:15:56.125Z,8.29
2022-11-30T17:18:25.994Z,8.30
2022-11-30T17:20:54.766Z,8.19
2022-11-30T17:23:24.981Z,8.20
2022-11-30T17:25:53.267Z,8.19
2022-11-30T17:28:22.811Z,8.14
2022-11-30T17:30:51.327Z,8.17
2022-11-30T17:33:20.263Z,8.19
2022-11-30T17:35:50.842Z,8.11
2022-11-30T17:38:19.803Z,8.12
2022-11-30T17:40:48.527Z,8.09
2022-11-30T17:43:17.004Z,8.09
2022-11-30T17:45:46.547Z,7.94
2022-11-30T17:48:16.109Z,7.87
2022-11-30T17:50:44.798Z,7.80
2022-11-30T17:53:18.109Z,7.79
2022-11-30T17:55:49.578Z,7.73
2022-11-30T17:58:21.877Z,7.85
2022-11-30T18:00:52.160Z,7.86
2022-11-30T18:03:20.686Z,7.74
2022-11-30T18:05:49.147Z,7.80
2022-11-30T18:08:20.998Z,7.72
2022-11-30T18:10:49.524Z,7.81
2022-11-30T18:13:18.271Z,7.76
2022-11-30T18:15:46.888Z,7.82
2022-11-30T18:18:15.092Z,7.75
2022-11-30T18:20:44.906Z,7.90
2022-11-30T18:23:13.210Z,7.80
2022-11-30T18:25:45.300Z,7.76
2022-11-30T18:28:13.970Z,7.72
2022-11-30T18:30:43.807Z,7.78
2022-11-30T18:33:12.657Z,7.69
2022-11-30T18:35:41.085Z,7.74
2022-11-30T18:38:09.639Z,7.81
2022-11-30T18:40:37.739Z,7.78
2022-11-30T18:43:08.104Z,7.87
2022-11-30T18:45:38.665Z,7.87
2022-11-30T18:48:07.288Z,7.91
2022-11-30T18:50:36.084Z,7.84
2022-11-30T18:53:04.499Z,7.78
2022-11-30T18:55:33.382Z,7.79
2022-11-30T18:58:03.475Z,7.86
2022-11-30T19:00:33.319Z,7.78
2022-11-30T19:03:01.903Z,7.79
2022-11-30T19:05:36.613Z,7.82
2022-11-30T19:08:06.582Z,7.83
2022-11-30T19:10:36.200Z,7.81
2022-11-30T19:13:05.842Z,7.71
2022-11-30T19:15:40.375Z,7.71
2022-11-30T19:18:12.870Z,7.72
2022-11-30T19:20:41.580Z,7.64
2022-11-30T19:23:10.438Z,7.61
2022-11-30T19:25:39.655Z,7.59
2022-11-30T19:28:08.139Z,7.65
2022-11-30T19:30:37.642Z,7.71
2022-11-30T19:33:09.260Z,7.60
2022-11-30T19:35:38.752Z,7.58
2022-11-30T19:38:07.454Z,7.61
2022-11-30T19:40:36.155Z,7.55
2022-11-30T19:43:06.639Z,7.60
2022-11-30T19:45:36.460Z,7.61
2022-11-30T19:48:07.405Z,7.57
2022-11-30T19:50:36.182Z,7.54
2022-11-30T19:53:05.787Z,7.54
2022-11-30T19:55:34.452Z,7.67
2022-11-30T19:58:02.685Z,7.53
2022-11-30T20:00:31.239Z,7.62
2022-11-30T20:03:09.714Z,7.62
2022-11-30T20:05:40.943Z,7.77
2022-11-30T20:08:10.518Z,7.65
2022-11-30T20:10:43.179Z,7.57
2022-11-30T20:13:12.002Z,7.57
2022-11-30T20:15:43.631Z,7.53
2022-11-30T20:18:12.098Z,7.53
2022-11-30T20:20:42.316Z,7.53
2022-11-30T20:23:12.292Z,7.47
2022-11-30T20:25:42.747Z,7.50
2022-11-30T20:28:12.886Z,7.53
2022-11-30T20:30:43.810Z,7.49
2022-11-30T20:33:12.332Z,7.54
2022-11-30T20:35:42.151Z,7.59
2022-11-30T20:38:11.772Z,7.51
2022-11-30T20:40:40.254Z,7.44
2022-11-30T20:43:08.998Z,7.46
2022-11-30T20:45:38.011Z,7.47
2022-11-30T20:48:12.468Z,7.38
2022-11-30T20:51:00.942Z,7.45
2022-11-30T20:53:33.180Z,7.63
2022-11-30T20:56:02.213Z,7.54
2022-11-30T20:58:31.599Z,7.45
2022-11-30T21:01:00.958Z,7.45
2022-11-30T21:03:30.168Z,7.57
2022-11-30T21:06:00.453Z,7.36
2022-11-30T21:08:29.095Z,7.37
2022-11-30T21:10:57.262Z,7.44
2022-11-30T21:13:27.248Z,7.36
2022-11-30T21:15:56.227Z,7.29
2022-11-30T21:18:24.605Z,7.31
2022-11-30T21:20:55.207Z,7.24
2022-11-30T21:23:27.920Z,7.33
2022-11-30T21:25:59.046Z,7.36
2022-11-30T21:28:34.870Z,7.34
2022-11-30T21:31:07.547Z,7.42
2022-11-30T21:33:37.217Z,7.53
2022-11-30T21:36:07.360Z,7.42
2022-11-30T21:38:37.997Z,7.41
2022-11-30T21:41:06.976Z,7.28
2022-11-30T21:43:36.723Z,7.43
2022-11-30T21:46:07.585Z,7.44
2022-11-30T21:48:37.687Z,7.38
2022-11-30T21:51:09.630Z,7.36
2022-11-30T21:53:42.081Z,7.39
2022-11-30T21:56:13.081Z,7.43
2022-11-30T21:58:42.011Z,7.34
2022-11-30T22:01:14.112Z,7.31
2022-11-30T22:03:42.473Z,7.32
2022-11-30T22:06:15.714Z,7.26
2022-11-30T22:08:47.906Z,7.49
2022-11-30T22:11:18.474Z,7.31
2022-11-30T22:13:50.679Z,7.28
2022-11-30T22:16:19.845Z,7.38
2022-11-30T22:18:51.347Z,7.45
2022-11-30T22:21:24.443Z,7.46
2022-11-30T22:23:58.346Z,7.47
2022-11-30T22:26:33.376Z,7.54
2022-11-30T22:29:03.107Z,7.57
2022-11-30T22:31:33.528Z,7.49
2022-11-30T22:34:02.545Z,7.41
2022-11-30T22:36:33.636Z,7.37
2022-11-30T22:39:06.791Z,7.40
2022-11-30T22:41:35.279Z,7.34
2022-11-30T22:44:04.090Z,7.37
2022-11-30T22:46:34.782Z,7.40
2022-11-30T22:49:04.382Z,7.45
2022-11-30T22:51:35.069Z,7.40
2022-11-30T22:54:05.798Z,7.50
2022-11-30T22:56:36.724Z,7.57
2022-11-30T22:59:06.784Z,7.50
2022-11-30T23:01:37.072Z,7.48
2022-11-30T23:04:08.753Z,7.46
2022-11-30T23:06:38.299Z,7.48
2022-11-30T23:09:14.015Z,7.57
2022-11-30T23:11:43.047Z,7.60
2022-11-30T23:14:12.727Z,7.58
2022-11-30T23:16:41.783Z,7.60
2022-11-30T23:19:12.185Z,7.55
2022-11-30T23:21:42.617Z,7.63
2022-11-30T23:24:18.578Z,7.62
2022-11-30T23:26:48.379Z,7.68
2022-11-30T23:29:19.068Z,7.60
2022-11-30T23:31:49.168Z,7.47
2022-11-30T23:34:22.855Z,7.57
2022-11-30T23:36:52.384Z,7.45
2022-11-30T23:39:22.782Z,7.57
2022-11-30T23:41:51.867Z,7.62
2022-11-30T23:44:24.567Z,7.61
2022-11-30T23:46:53.238Z,7.62
2022-11-30T23:49:22.095Z,7.55
2022-11-30T23:51:50.629Z,7.52
2022-11-30T23:54:18.947Z,7.56
2022-11-30T23:56:48.754Z,7.61
2022-11-30T23:59:17.196Z,7.63
